Time;durP1;ratioP1;P1;durP2;ratioP2;P2;SDS_P1;SDS_P2;PMS_P1;PMS_P2;Temp;Humidity;BMP_temperature;BMP_pressure;BME280_temperature;BME280_humidity;BME280_pressure;Samples;Min_cycle;Max_cycle;Signal;HPM_P1;HPM_P2
2021/06/24 00:01:43;;;;;;;9.57;6.07;;;15.50;99.90;;;;;;5032471;28;20410;-72
2021/06/24 00:04:12;;;;;;;6.10;5.17;;;15.70;99.90;;;;;;5031454;28;20421;-73
2021/06/24 00:06:40;;;;;;;5.93;5.43;;;15.60;99.90;;;;;;5031774;28;20399;-74
2021/06/24 00:09:08;;;;;;;5.70;4.87;;;15.60;99.90;;;;;;5030874;28;20431;-71
2021/06/24 00:11:37;;;;;;;8.17;6.40;;;15.60;99.90;;;;;;5030650;28;20422;-71
2021/06/24 00:14:05;;;;;;;5.73;5.10;;;15.50;99.90;;;;;;5030721;28;20399;-71
2021/06/24 00:16:34;;;;;;;9.20;5.00;;;15.40;99.90;;;;;;5031047;28;20395;-71
2021/06/24 00:19:03;;;;;;;5.27;4.77;;;15.30;99.90;;;;;;5031014;28;20475;-71
2021/06/24 00:21:31;;;;;;;11.50;5.73;;;15.10;99.90;;;;;;5028940;28;20489;-70
2021/06/24 00:23:59;;;;;;;7.07;4.97;;;15.20;99.90;;;;;;5030376;28;20424;-71
2021/06/24 00:26:27;;;;;;;6.07;5.50;;;15.20;99.90;;;;;;5030853;28;20421;-71
2021/06/24 00:28:55;;;;;;;5.17;4.67;;;15.30;99.90;;;;;;5012810;28;20414;-71
2021/06/24 00:31:24;;;;;;;6.63;5.70;;;15.20;99.90;;;;;;5030480;28;20468;-70
2021/06/24 00:33:53;;;;;;;8.13;5.77;;;15.20;99.90;;;;;;5030631;28;20432;-73
2021/06/24 00:36:21;;;;;;;6.50;5.07;;;15.20;99.90;;;;;;5031622;28;20421;-70
2021/06/24 00:38:50;;;;;;;5.87;5.33;;;15.20;99.90;;;;;;5034286;28;20441;-72
2021/06/24 00:41:18;;;;;;;6.40;5.77;;;15.20;99.90;;;;;;5016473;28;20462;-72
2021/06/24 00:43:46;;;;;;;8.03;5.00;;;15.30;99.90;;;;;;5016478;28;20417;-74
2021/06/24 00:46:15;;;;;;;4.90;4.40;;;15.20;99.90;;;;;;5034219;28;20424;-72
2021/06/24 00:48:45;;;;;;;9.97;5.57;;;15.30;99.90;;;;;;5033950;28;20420;-72
2021/06/24 00:51:14;;;;;;;9.53;6.07;;;15.50;99.90;;;;;;5016291;28;20964;-72
2021/06/24 00:53:42;;;;;;;6.03;5.50;;;15.60;99.90;;;;;;5033900;28;20431;-74
2021/06/24 00:56:25;;;;;;;5.67;5.00;;;15.90;99.90;;;;;;5034554;28;20423;-71
2021/06/24 00:58:54;;;;;;;7.80;5.40;;;15.80;99.90;;;;;;5015937;28;20424;-70
2021/06/24 01:01:22;;;;;;;7.83;5.17;;;15.80;99.90;;;;;;5032469;28;20471;-71
2021/06/24 01:03:51;;;;;;;6.07;5.47;;;15.80;99.90;;;;;;5015817;28;20413;-72
2021/06/24 01:06:20;;;;;;;7.27;5.80;;;15.70;99.90;;;;;;5034290;28;20478;-71
2021/06/24 01:08:50;;;;;;;7.77;6.47;;;15.60;99.90;;;;;;5016191;28;20441;-70
2021/06/24 01:11:20;;;;;;;7.03;5.83;;;15.50;99.90;;;;;;5033268;28;20509;-72
2021/06/24 01:13:48;;;;;;;7.97;5.90;;;15.40;99.90;;;;;;5033436;28;20475;-70
2021/06/24 01:16:18;;;;;;;6.97;5.20;;;15.30;99.90;;;;;;5015685;28;20494;-70
2021/06/24 01:18:48;;;;;;;6.60;5.80;;;15.50;99.90;;;;;;5033479;28;20922;-70
2021/06/24 01:21:17;;;;;;;6.20;5.70;;;15.60;99.90;;;;;;5033893;28;20555;-71
2021/06/24 01:23:46;;;;;;;5.47;4.73;;;15.80;99.90;;;;;;5033370;28;20795;-73
2021/06/24 01:26:17;;;;;;;9.03;6.10;;;16.00;99.90;;;;;;5015448;28;20504;-71
2021/06/24 01:28:45;;;;;;;9.33;5.37;;;16.10;99.90;;;;;;5033479;28;20427;-71
2021/06/24 01:31:14;;;;;;;6.37;5.07;;;16.30;99.90;;;;;;5015439;28;20482;-72
2021/06/24 01:33:44;;;;;;;5.03;4.53;;;16.30;99.90;;;;;;5033512;28;20402;-71
2021/06/24 01:36:13;;;;;;;8.17;5.20;;;16.20;99.90;;;;;;5015467;28;20951;-72
2021/06/24 01:38:44;;;;;;;6.00;5.40;;;15.80;99.90;;;;;;5033120;28;20397;-72
2021/06/24 01:41:33;;;;;;;9.47;6.47;;;15.60;99.90;;;;;;5014967;28;21010;-73
2021/06/24 01:44:06;;;;;;;5.47;4.70;;;15.50;99.90;;;;;;5033186;28;20436;-71
2021/06/24 01:46:35;;;;;;;6.17;5.57;;;15.60;99.90;;;;;;5014851;28;20513;-71
2021/06/24 01:49:03;;;;;;;5.67;5.17;;;15.70;99.90;;;;;;5032949;28;20772;-71
2021/06/24 01:51:33;;;;;;;7.13;4.97;;;15.70;99.90;;;;;;5015480;28;20571;-71
2021/06/24 01:54:02;;;;;;;5.87;5.33;;;16.00;99.90;;;;;;5015137;28;20399;-71
2021/06/24 01:56:31;;;;;;;5.60;4.80;;;16.00;99.90;;;;;;5015137;28;20436;-71
2021/06/24 01:59:02;;;;;;;7.53;5.70;;;15.80;99.90;;;;;;5015106;28;20415;-72
2021/06/24 02:01:56;;;;;;;8.33;5.60;;;15.60;99.90;;;;;;5027714;28;20438;-71
2021/06/24 02:05:00;;;;;;;7.30;6.60;;;15.50;99.90;;;;;;5017144;28;20523;-71
2021/06/24 02:07:38;;;;;;;6.70;5.40;;;15.60;99.90;;;;;;5033061;28;20440;-71
2021/06/24 02:10:22;;;;;;;15.97;5.60;;;15.40;99.90;;;;;;5032839;28;20442;-74
2021/06/24 02:12:56;;;;;;;8.40;5.90;;;15.40;99.90;;;;;;5033074;28;20394;-71
2021/06/24 02:15:27;;;;;;;6.20;5.60;;;15.30;99.90;;;;;;5015067;28;20418;-72
2021/06/24 02:17:55;;;;;;;7.27;6.07;;;15.30;99.90;;;;;;5014499;28;20415;-73
2021/06/24 02:20:37;;;;;;;6.00;5.23;;;15.30;99.90;;;;;;5014366;28;20443;-73
2021/06/24 02:23:13;;;;;;;7.13;5.60;;;15.40;99.90;;;;;;5014030;28;20535;-71
2021/06/24 02:25:48;;;;;;;7.30;6.17;;;15.50;99.90;;;;;;5032184;28;20399;-71
2021/06/24 02:28:23;;;;;;;6.60;5.60;;;15.50;99.90;;;;;;5032182;28;20474;-73
2021/06/24 02:31:11;;;;;;;7.40;5.27;;;15.40;99.90;;;;;;5014605;28;20824;-71
2021/06/24 02:33:41;;;;;;;8.60;6.40;;;15.50;99.90;;;;;;5032474;28;20437;-71
2021/06/24 02:36:18;;;;;;;6.30;5.70;;;15.50;99.90;;;;;;5033118;28;20455;-71
2021/06/24 02:38:46;;;;;;;7.43;4.97;;;15.30;99.90;;;;;;5033736;28;20855;-72
2021/06/24 02:41:14;;;;;;;7.60;5.77;;;15.30;99.90;;;;;;5015850;28;20460;-72
2021/06/24 02:43:44;;;;;;;7.30;5.33;;;15.20;99.90;;;;;;5033298;28;20419;-71
2021/06/24 02:46:15;;;;;;;10.00;6.07;;;15.20;99.90;;;;;;5032996;28;20458;-72
2021/06/24 02:48:50;;;;;;;7.07;5.63;;;15.10;99.90;;;;;;5014378;28;20436;-72
2021/06/24 02:51:26;;;;;;;6.03;5.53;;;14.90;99.90;;;;;;5013900;28;20438;-71
2021/06/24 02:54:10;;;;;;;10.60;5.87;;;14.80;99.90;;;;;;5013576;28;20434;-70
2021/06/24 02:56:40;;;;;;;6.93;6.23;;;14.70;99.90;;;;;;5031881;28;20399;-70
2021/06/24 02:59:29;;;;;;;7.80;6.30;;;14.70;99.90;;;;;;5030755;28;20410;-70
2021/06/24 03:02:01;;;;;;;7.20;5.10;;;14.70;99.90;;;;;;5013714;28;20427;-71
2021/06/24 03:04:33;;;;;;;7.13;5.80;;;14.90;99.90;;;;;;5031765;28;20486;-72
2021/06/24 03:07:02;;;;;;;8.30;5.90;;;15.00;99.90;;;;;;5032107;28;20425;-71
2021/06/24 03:09:35;;;;;;;8.57;6.10;;;15.30;99.90;;;;;;5031661;28;20379;-73
2021/06/24 03:12:05;;;;;;;7.00;5.43;;;15.30;99.90;;;;;;5013824;28;20482;-72
2021/06/24 03:14:36;;;;;;;6.47;5.77;;;15.30;99.90;;;;;;5031437;28;20383;-72
2021/06/24 03:17:07;;;;;;;6.93;6.10;;;15.20;99.90;;;;;;5031708;28;20802;-73
2021/06/24 03:19:36;;;;;;;7.30;5.80;;;15.10;99.90;;;;;;5013805;28;20452;-70
2021/06/24 03:22:12;;;;;;;10.90;7.70;;;15.00;99.90;;;;;;5031305;28;20439;-71
2021/06/24 03:24:51;;;;;;;6.63;5.70;;;14.90;99.90;;;;;;5031520;28;20493;-71
2021/06/24 03:27:23;;;;;;;6.37;5.50;;;15.00;99.90;;;;;;5031585;28;20794;-72
2021/06/24 03:30:17;;;;;;;7.47;5.50;;;15.00;99.90;;;;;;5030596;28;20467;-72
2021/06/24 03:32:49;;;;;;;8.33;5.77;;;15.00;99.90;;;;;;5013273;28;20567;-74
2021/06/24 03:35:18;;;;;;;8.07;5.60;;;15.00;99.90;;;;;;5031532;28;20398;-71
2021/06/24 03:37:46;;;;;;;5.97;5.47;;;14.90;99.90;;;;;;5031221;28;20418;-74
2021/06/24 03:40:18;;;;;;;5.60;5.17;;;14.90;99.90;;;;;;5013278;28;20444;-71
2021/06/24 03:42:51;;;;;;;5.60;4.30;;;14.80;99.90;;;;;;5031198;28;20424;-72
2021/06/24 03:45:20;;;;;;;8.70;6.33;;;14.90;99.90;;;;;;5031363;28;20772;-71
2021/06/24 03:47:50;;;;;;;8.80;6.10;;;14.90;99.90;;;;;;5030841;28;20398;-74
2021/06/24 03:50:18;;;;;;;9.13;5.03;;;15.00;99.90;;;;;;5030890;28;20442;-72
2021/06/24 03:52:47;;;;;;;8.80;5.70;;;15.10;99.90;;;;;;5012562;28;20525;-73
2021/06/24 03:55:17;;;;;;;6.20;4.87;;;15.10;99.90;;;;;;5030977;28;20423;-72
2021/06/24 03:58:03;;;;;;;8.00;5.00;;;15.40;99.90;;;;;;5013004;28;20443;-72
2021/06/24 04:00:31;;;;;;;8.13;5.13;;;15.50;99.90;;;;;;5030613;28;20487;-71
2021/06/24 04:03:10;;;;;;;14.90;6.03;;;15.50;99.90;;;;;;5012626;28;20762;-72
2021/06/24 04:05:54;;;;;;;6.23;5.60;;;15.40;99.90;;;;;;5031156;28;20400;-71
2021/06/24 04:08:23;;;;;;;5.80;5.30;;;15.30;99.90;;;;;;5031325;28;20779;-73
2021/06/24 04:11:05;;;;;;;7.27;6.03;;;15.30;99.90;;;;;;5015944;28;20539;-72
2021/06/24 04:13:40;;;;;;;8.27;6.63;;;15.30;99.90;;;;;;5017116;28;20436;-72
2021/06/24 04:16:28;;;;;;;6.97;6.27;;;15.30;99.90;;;;;;5034636;28;20432;-72
2021/06/24 04:18:59;;;;;;;7.03;6.33;;;15.30;99.90;;;;;;5017061;28;20514;-72
2021/06/24 04:21:27;;;;;;;6.00;5.50;;;15.30;99.90;;;;;;5017402;28;20452;-72
2021/06/24 04:23:56;;;;;;;12.23;6.10;;;15.30;99.90;;;;;;5034788;28;20721;-72
2021/06/24 04:26:24;;;;;;;7.37;5.70;;;15.40;99.90;;;;;;5017140;28;20411;-72
2021/06/24 04:28:53;;;;;;;7.90;7.13;;;15.40;99.90;;;;;;5034447;28;20433;-72
2021/06/24 04:31:22;;;;;;;7.10;6.40;;;15.50;99.90;;;;;;5016119;28;20497;-72
2021/06/24 04:33:50;;;;;;;9.57;7.27;;;15.40;99.90;;;;;;5016339;28;20434;-71
2021/06/24 04:36:34;;;;;;;6.57;5.87;;;15.50;99.90;;;;;;5016860;28;20834;-72
2021/06/24 04:39:13;;;;;;;10.13;6.93;;;15.70;99.90;;;;;;5034427;28;20535;-71
2021/06/24 04:41:42;;;;;;;6.10;5.50;;;15.90;99.90;;;;;;5034336;28;20442;-72
2021/06/24 04:44:13;;;;;;;11.70;6.23;;;16.00;99.90;;;;;;5033721;28;20383;-70
2021/06/24 04:46:44;;;;;;;11.30;6.30;;;15.80;99.90;;;;;;5032913;28;20418;-72
2021/06/24 04:49:13;;;;;;;8.47;6.10;;;15.80;99.90;;;;;;5016352;28;20407;-71
2021/06/24 04:52:02;;;;;;;8.43;6.90;;;15.70;99.90;;;;;;5034088;28;20474;-71
2021/06/24 04:54:49;;;;;;;8.93;8.03;;;15.70;99.90;;;;;;5034614;28;20423;-72
2021/06/24 04:57:17;;;;;;;9.20;5.70;;;15.90;99.90;;;;;;5034306;28;20399;-72
2021/06/24 05:00:24;;;;;;;9.20;6.27;;;15.90;99.90;;;;;;5033853;28;20467;-72
2021/06/24 05:03:11;;;;;;;8.33;6.60;;;15.90;99.90;;;;;;5034201;28;20740;-71
2021/06/24 05:05:50;;;;;;;9.53;6.30;;;16.10;99.90;;;;;;5033944;28;20481;-71
2021/06/24 05:08:22;;;;;;;7.17;6.37;;;16.40;99.90;;;;;;5033933;28;20432;-72
2021/06/24 05:10:51;;;;;;;8.57;7.73;;;16.50;99.90;;;;;;5033631;28;20418;-72
2021/06/24 05:13:19;;;;;;;5.97;5.47;;;16.40;99.90;;;;;;5033509;28;20470;-72
2021/06/24 05:15:47;;;;;;;8.60;7.00;;;16.30;99.90;;;;;;5033853;28;20391;-70
2021/06/24 05:18:16;;;;;;;11.80;7.43;;;16.50;99.90;;;;;;5033760;28;20394;-70
2021/06/24 05:20:45;;;;;;;7.60;6.90;;;16.40;99.90;;;;;;5015617;28;20463;-70
2021/06/24 05:23:15;;;;;;;12.97;6.50;;;16.20;99.90;;;;;;5032478;28;20416;-71
2021/06/24 05:25:46;;;;;;;6.77;6.17;;;16.00;99.90;;;;;;5033444;28;20434;-71
2021/06/24 05:28:14;;;;;;;7.27;6.37;;;15.90;99.90;;;;;;5015954;28;20407;-70
2021/06/24 05:30:45;;;;;;;11.03;7.60;;;15.90;99.90;;;;;;5033162;28;20875;-72
2021/06/24 05:33:14;;;;;;;11.13;7.37;;;15.90;99.90;;;;;;5032862;28;20783;-71
2021/06/24 05:35:42;;;;;;;17.30;8.30;;;16.00;99.90;;;;;;5033260;28;20399;-71
2021/06/24 05:38:12;;;;;;;7.07;6.37;;;16.10;99.90;;;;;;5033010;28;20391;-72
2021/06/24 05:40:40;;;;;;;12.40;7.60;;;16.10;99.90;;;;;;5015289;28;20427;-71
2021/06/24 05:43:10;;;;;;;10.23;6.13;;;16.10;99.90;;;;;;5033323;28;20412;-73
2021/06/24 05:45:38;;;;;;;10.50;6.70;;;16.20;99.90;;;;;;5033665;28;20456;-70
2021/06/24 05:48:07;;;;;;;6.87;6.17;;;16.20;99.90;;;;;;5015243;28;20414;-72
2021/06/24 05:50:36;;;;;;;9.87;6.63;;;16.30;99.90;;;;;;5032568;28;20448;-71
2021/06/24 05:53:05;;;;;;;7.90;7.10;;;16.20;99.90;;;;;;5032601;28;20456;-71
2021/06/24 05:55:48;;;;;;;8.53;7.33;;;16.00;99.90;;;;;;5032866;28;20420;-70
2021/06/24 05:58:19;;;;;;;10.97;6.67;;;15.90;99.90;;;;;;5032971;28;20432;-71
2021/06/24 06:00:48;;;;;;;7.77;6.13;;;15.90;99.90;;;;;;5032877;28;20514;-71
2021/06/24 06:03:16;;;;;;;8.80;7.87;;;16.00;99.90;;;;;;5032595;28;20743;-71
2021/06/24 06:05:45;;;;;;;12.07;8.40;;;16.10;99.90;;;;;;5032739;28;20399;-71
2021/06/24 06:08:13;;;;;;;9.87;8.70;;;16.20;99.90;;;;;;5032734;28;20784;-71
2021/06/24 06:10:41;;;;;;;8.70;6.57;;;16.30;99.90;;;;;;5032431;28;20415;-71
2021/06/24 06:13:11;;;;;;;8.60;7.30;;;16.30;99.90;;;;;;5031974;28;20434;-72
2021/06/24 06:15:42;;;;;;;16.23;10.90;;;16.30;99.90;;;;;;5032315;28;20727;-72
2021/06/24 06:18:12;;;;;;;10.07;8.10;;;16.40;99.90;;;;;;5033124;28;20399;-70
2021/06/24 06:20:41;;;;;;;14.10;8.87;;;16.10;99.90;;;;;;5032206;28;20819;-71
2021/06/24 06:23:09;;;;;;;9.50;8.60;;;16.10;99.90;;;;;;5032441;28;20787;-72
2021/06/24 06:25:37;;;;;;;14.50;9.70;;;16.10;99.90;;;;;;5032306;28;20413;-71
2021/06/24 06:28:06;;;;;;;8.13;6.77;;;16.30;99.90;;;;;;5032132;28;20454;-72
2021/06/24 06:30:34;;;;;;;10.37;8.37;;;16.60;99.90;;;;;;5032380;28;20435;-74
2021/06/24 06:33:04;;;;;;;9.70;8.37;;;16.80;99.90;;;;;;5032166;28;20484;-73
2021/06/24 06:35:32;;;;;;;12.87;8.37;;;16.90;99.90;;;;;;5033528;28;20432;-74
2021/06/24 06:38:01;;;;;;;13.60;8.17;;;17.00;99.90;;;;;;5034617;28;20420;-72
2021/06/24 06:40:29;;;;;;;8.67;7.80;;;17.10;99.90;;;;;;5035498;28;20436;-73
2021/06/24 06:42:57;;;;;;;8.13;7.40;;;17.20;99.90;;;;;;5034965;28;20416;-73
2021/06/24 06:45:27;;;;;;;11.93;7.60;;;17.40;99.90;;;;;;5017011;28;20432;-73
2021/06/24 06:47:56;;;;;;;9.77;8.77;;;17.60;99.90;;;;;;5032988;28;20468;-73
2021/06/24 06:50:26;;;;;;;8.83;8.00;;;17.80;99.90;;;;;;5014065;28;20434;-73
2021/06/24 06:52:55;;;;;;;10.90;6.77;;;17.90;99.90;;;;;;5031901;28;20434;-73
2021/06/24 06:55:28;;;;;;;11.37;8.10;;;17.90;99.90;;;;;;5031854;28;20810;-72
2021/06/24 06:57:58;;;;;;;9.40;7.20;;;18.20;99.90;;;;;;5032138;28;20813;-70
2021/06/24 07:00:28;;;;;;;9.43;7.70;;;18.30;99.90;;;;;;5031350;28;20423;-72
2021/06/24 07:02:56;;;;;;;11.13;8.63;;;18.40;99.90;;;;;;5031594;28;20402;-73
2021/06/24 07:05:26;;;;;;;8.03;6.80;;;18.30;99.90;;;;;;5013919;28;20466;-74
2021/06/24 07:07:55;;;;;;;10.77;8.60;;;18.50;99.90;;;;;;5031259;28;20395;-72
2021/06/24 07:10:24;;;;;;;8.63;7.90;;;18.60;99.90;;;;;;5031307;28;20444;-71
2021/06/24 07:12:52;;;;;;;15.40;9.00;;;18.70;99.90;;;;;;5031047;28;20420;-73
2021/06/24 07:15:21;;;;;;;14.27;7.27;;;18.80;99.90;;;;;;5014013;28;20915;-72
2021/06/24 07:17:49;;;;;;;12.40;8.00;;;19.10;99.90;;;;;;5031245;28;20429;-73
2021/06/24 07:20:18;;;;;;;8.40;7.57;;;19.20;99.90;;;;;;5031232;28;20459;-71
2021/06/24 07:22:48;;;;;;;11.07;8.57;;;19.50;99.90;;;;;;5031096;28;20403;-73
2021/06/24 07:25:18;;;;;;;12.83;7.57;;;19.60;99.90;;;;;;5031387;28;20424;-73
2021/06/24 07:27:47;;;;;;;10.13;7.30;;;19.90;99.90;;;;;;5031391;28;20391;-74
2021/06/24 07:30:16;;;;;;;9.83;8.30;;;19.80;99.90;;;;;;5013133;28;20881;-72
2021/06/24 07:32:44;;;;;;;9.90;8.80;;;19.60;99.90;;;;;;5030900;28;20399;-72
2021/06/24 07:35:13;;;;;;;9.10;8.00;;;19.60;99.90;;;;;;5031320;28;20441;-72
2021/06/24 07:37:44;;;;;;;12.27;8.93;;;19.70;99.90;;;;;;5031293;28;20531;-74
2021/06/24 07:40:14;;;;;;;8.47;7.67;;;19.70;99.90;;;;;;5031605;28;20423;-71
2021/06/24 07:42:43;;;;;;;8.80;7.93;;;19.40;99.90;;;;;;5031287;28;20416;-73
2021/06/24 07:45:12;;;;;;;9.10;8.20;;;19.20;99.90;;;;;;5030457;28;20424;-73
2021/06/24 07:47:40;;;;;;;9.40;8.40;;;18.90;99.90;;;;;;5031106;28;20910;-74
2021/06/24 07:50:09;;;;;;;10.10;9.20;;;18.90;99.90;;;;;;5030951;28;20913;-72
2021/06/24 07:52:37;;;;;;;18.97;9.33;;;18.70;99.90;;;;;;5030641;28;20394;-71
2021/06/24 07:55:08;;;;;;;13.00;8.43;;;18.40;99.90;;;;;;5013266;28;20822;-72
2021/06/24 07:57:37;;;;;;;13.20;8.80;;;18.40;99.90;;;;;;5030820;28;20479;-72
2021/06/24 08:00:07;;;;;;;14.83;11.20;;;18.40;99.90;;;;;;5030567;28;20434;-72
2021/06/24 08:02:44;;;;;;;13.70;9.77;;;18.50;99.90;;;;;;5030533;28;20431;-71
2021/06/24 08:05:18;;;;;;;12.20;9.93;;;18.60;99.90;;;;;;5030795;28;20918;-74
2021/06/24 08:07:48;;;;;;;11.30;9.63;;;18.80;99.90;;;;;;5030849;28;20398;-72
2021/06/24 08:10:17;;;;;;;10.80;9.70;;;19.20;99.90;;;;;;5030239;28;20768;-73
2021/06/24 08:12:48;;;;;;;9.23;8.33;;;19.70;99.90;;;;;;5030905;28;20462;-70
2021/06/24 08:15:20;;;;;;;11.40;8.10;;;20.00;99.90;;;;;;5013122;28;21011;-73
2021/06/24 08:17:49;;;;;;;9.63;8.20;;;19.70;99.90;;;;;;5031041;28;20399;-73
2021/06/24 08:20:17;;;;;;;8.73;7.63;;;19.70;99.90;;;;;;5031127;28;21002;-73
2021/06/24 08:22:46;;;;;;;11.53;10.43;;;19.90;99.90;;;;;;5031096;28;20416;-69
2021/06/24 08:25:15;;;;;;;12.10;8.17;;;20.30;99.90;;;;;;5030834;28;20424;-72
2021/06/24 08:27:43;;;;;;;12.10;8.53;;;20.30;99.90;;;;;;5030736;28;20406;-71
2021/06/24 08:30:14;;;;;;;12.30;9.50;;;20.50;99.90;;;;;;5030309;28;20438;-71
2021/06/24 08:32:42;;;;;;;11.70;9.40;;;20.40;99.90;;;;;;5030880;28;20492;-72
2021/06/24 08:35:12;;;;;;;9.40;7.60;;;20.40;99.90;;;;;;5030690;28;20476;-70
2021/06/24 08:37:41;;;;;;;14.13;8.83;;;20.60;99.90;;;;;;5030525;28;20883;-71
2021/06/24 08:40:12;;;;;;;12.43;9.60;;;20.90;99.90;;;;;;5030886;28;20923;-72
2021/06/24 08:42:42;;;;;;;12.07;9.43;;;20.80;99.90;;;;;;5030716;28;20417;-71
2021/06/24 08:45:13;;;;;;;14.80;9.63;;;20.60;99.90;;;;;;5031196;28;20743;-72
2021/06/24 08:47:42;;;;;;;12.53;10.60;;;20.40;99.90;;;;;;5031250;28;20825;-74
2021/06/24 08:50:11;;;;;;;11.60;10.40;;;20.20;99.90;;;;;;5030984;28;20398;-71
2021/06/24 08:52:41;;;;;;;17.77;11.67;;;20.10;99.90;;;;;;5030891;28;20395;-71
2021/06/24 08:55:09;;;;;;;15.13;12.33;;;20.10;99.90;;;;;;5030875;28;20482;-73
2021/06/24 08:57:38;;;;;;;14.50;10.83;;;20.10;99.90;;;;;;5032705;28;20394;-71
2021/06/24 09:00:09;;;;;;;12.87;11.70;;;20.40;99.90;;;;;;5035196;28;20780;-71
2021/06/24 09:02:40;;;;;;;10.40;9.37;;;20.90;99.90;;;;;;5034661;28;20850;-71
2021/06/24 09:05:11;;;;;;;12.17;9.90;;;20.90;99.90;;;;;;5034476;28;20391;-71
2021/06/24 09:07:51;;;;;;;9.83;8.93;;;21.30;99.90;;;;;;5034352;28;20455;-73
2021/06/24 09:10:20;;;;;;;16.03;10.90;;;21.20;99.90;;;;;;5034262;28;21044;-73
2021/06/24 09:12:53;;;;;;;14.43;9.83;;;20.90;99.90;;;;;;5034110;28;20387;-73
2021/06/24 09:15:23;;;;;;;11.90;10.00;;;20.70;99.90;;;;;;5034579;28;20438;-74
2021/06/24 09:17:53;;;;;;;10.27;9.10;;;20.40;99.90;;;;;;5034301;28;20422;-72
2021/06/24 09:20:34;;;;;;;12.40;9.37;;;20.40;99.90;;;;;;5034518;28;20423;-72
2021/06/24 09:23:09;;;;;;;11.63;7.70;;;20.30;99.90;;;;;;5015480;28;20436;-72
2021/06/24 09:25:39;;;;;;;14.10;9.73;;;20.80;99.90;;;;;;5033503;28;20452;-72
2021/06/24 09:28:09;;;;;;;11.00;8.93;;;20.90;99.90;;;;;;5015743;28;20421;-72
2021/06/24 09:30:39;;;;;;;11.87;9.10;;;20.90;99.90;;;;;;5033262;28;20452;-72
2021/06/24 09:33:10;;;;;;;10.70;8.90;;;20.60;99.90;;;;;;5033114;28;20395;-71
2021/06/24 09:35:40;;;;;;;10.63;9.43;;;20.40;99.90;;;;;;5033431;28;20795;-73
2021/06/24 09:38:13;;;;;;;10.53;8.10;;;20.80;99.90;;;;;;5033138;28;20407;-72
2021/06/24 09:40:46;;;;;;;12.60;9.17;;;21.20;99.90;;;;;;5033333;28;20440;-72
2021/06/24 09:43:29;;;;;;;11.53;9.63;;;21.40;99.90;;;;;;5032842;28;20402;-73
2021/06/24 09:46:03;;;;;;;12.50;9.87;;;21.30;99.90;;;;;;5033303;28;20509;-70
2021/06/24 09:48:37;;;;;;;12.00;9.20;;;21.40;99.90;;;;;;5033098;28;20416;-71
2021/06/24 09:51:07;;;;;;;13.57;8.87;;;21.50;99.90;;;;;;5032919;28;20590;-72
2021/06/24 09:53:47;;;;;;;11.17;8.77;;;21.30;99.90;;;;;;5032826;28;20424;-72
2021/06/24 09:56:24;;;;;;;9.60;8.70;;;21.10;99.90;;;;;;5032758;28;20457;-71
2021/06/24 09:58:55;;;;;;;10.00;8.97;;;21.20;99.90;;;;;;5033078;28;20555;-72
2021/06/24 10:01:31;;;;;;;11.53;10.33;;;21.20;99.90;;;;;;5033019;28;20473;-70
2021/06/24 10:04:02;;;;;;;13.17;9.03;;;21.40;99.90;;;;;;5032357;28;20430;-72
2021/06/24 10:06:30;;;;;;;8.80;7.90;;;21.20;99.90;;;;;;5032774;28;20725;-70
2021/06/24 10:08:59;;;;;;;9.67;8.60;;;21.20;99.90;;;;;;5031945;28;20397;-72
2021/06/24 10:11:27;;;;;;;11.17;10.13;;;21.20;99.90;;;;;;5032715;28;20987;-72
2021/06/24 10:13:56;;;;;;;9.03;8.13;;;21.20;99.90;;;;;;5014595;28;20428;-72
2021/06/24 10:16:27;;;;;;;11.90;7.73;;;21.20;99.90;;;;;;5032497;28;20571;-71
2021/06/24 10:18:58;;;;;;;9.77;8.80;;;21.30;99.90;;;;;;5032470;28;20402;-72
2021/06/24 10:21:29;;;;;;;11.13;9.87;;;21.40;99.90;;;;;;5032071;28;20443;-71
2021/06/24 10:24:02;;;;;;;9.33;8.23;;;21.60;99.90;;;;;;5031890;28;20754;-71
2021/06/24 10:26:31;;;;;;;12.97;11.77;;;21.40;99.90;;;;;;5014486;28;20432;-72
2021/06/24 10:29:17;;;;;;;9.93;8.93;;;21.50;99.90;;;;;;5031975;28;20930;-73
2021/06/24 10:31:49;;;;;;;10.50;9.03;;;21.60;99.90;;;;;;5018325;28;20443;-69
2021/06/24 10:34:18;;;;;;;10.23;9.30;;;21.80;99.90;;;;;;5024833;28;20418;-70
2021/06/24 10:37:12;;;;;;;8.90;7.97;;;21.70;99.90;;;;;;5025508;28;20435;-69
2021/06/24 10:39:43;;;;;;;10.90;9.80;;;21.40;99.90;;;;;;5012631;28;20813;-70
2021/06/24 10:42:14;;;;;;;9.53;8.33;;;21.30;99.90;;;;;;5016123;28;20791;-70
2021/06/24 10:44:47;;;;;;;13.60;8.80;;;21.40;99.90;;;;;;5014322;28;20419;-70
2021/06/24 10:47:15;;;;;;;9.10;8.27;;;21.50;99.90;;;;;;5013703;28;20408;-70
2021/06/24 10:49:43;;;;;;;9.17;8.27;;;21.60;99.90;;;;;;5013147;28;20392;-70
2021/06/24 10:52:25;;;;;;;9.80;8.83;;;21.70;99.90;;;;;;5012156;28;20870;-70
2021/06/24 10:54:53;;;;;;;9.97;8.80;;;21.50;99.90;;;;;;5012559;28;20446;-70
2021/06/24 10:57:35;;;;;;;12.73;8.93;;;21.00;99.90;;;;;;5012431;28;20424;-69
2021/06/24 11:00:31;;;;;;;10.23;9.30;;;20.90;99.90;;;;;;5012362;28;20428;-71
2021/06/24 11:03:00;;;;;;;11.03;9.83;;;21.30;99.90;;;;;;4994203;28;20414;-70
2021/06/24 11:05:35;;;;;;;12.00;10.00;;;21.40;99.90;;;;;;5011953;28;20428;-69
2021/06/24 11:08:11;;;;;;;10.23;8.73;;;21.30;99.90;;;;;;5011942;28;20473;-69
2021/06/24 11:10:53;;;;;;;9.77;8.80;;;21.20;99.90;;;;;;5011717;28;20503;-69
2021/06/24 11:13:45;;;;;;;10.43;9.23;;;21.50;99.90;;;;;;5011710;28;20504;-69
2021/06/24 11:16:32;;;;;;;11.57;8.90;;;21.90;99.90;;;;;;5011538;28;20559;-69
2021/06/24 11:19:02;;;;;;;9.00;8.20;;;21.70;99.90;;;;;;5011651;28;20937;-72
2021/06/24 11:22:03;;;;;;;12.90;9.97;;;21.50;99.90;;;;;;5011089;28;20434;-69
2021/06/24 11:24:33;;;;;;;10.03;9.03;;;21.20;99.90;;;;;;5011583;28;20424;-69
2021/06/24 11:27:02;;;;;;;9.03;8.20;;;21.10;99.90;;;;;;5012103;28;20396;-70
2021/06/24 11:29:48;;;;;;;8.87;8.13;;;21.30;99.90;;;;;;5012930;28;20425;-69
2021/06/24 11:32:19;;;;;;;10.40;9.27;;;21.70;99.90;;;;;;5011524;28;20423;-70
2021/06/24 11:34:54;;;;;;;10.00;7.50;;;21.80;99.90;;;;;;5012300;28;20437;-70
2021/06/24 11:37:25;;;;;;;9.53;6.50;;;21.90;99.90;;;;;;5011638;28;20551;-70
2021/06/24 11:39:57;;;;;;;9.47;8.50;;;22.00;99.90;;;;;;5011823;28;20516;-70
2021/06/24 11:42:29;;;;;;;8.23;6.20;;;21.90;99.90;;;;;;5011828;28;20414;-69
2021/06/24 11:44:58;;;;;;;7.13;6.43;;;21.70;99.90;;;;;;5011696;28;20478;-69
2021/06/24 11:47:28;;;;;;;7.30;6.57;;;21.70;99.90;;;;;;5011805;28;20392;-69
2021/06/24 12:04:13;;;;;;;6.70;5.27;;;21.40;99.90;;;;;;5010952;28;20402;-69
2021/06/24 12:06:47;;;;;;;5.90;4.30;;;21.60;99.90;;;;;;5011199;28;20404;-70
2021/06/24 12:09:21;;;;;;;4.97;4.57;;;21.80;99.90;;;;;;5011100;28;20498;-70
2021/06/24 12:11:55;;;;;;;7.13;5.03;;;22.00;99.90;;;;;;5010899;28;20444;-69
2021/06/24 12:14:29;;;;;;;6.80;6.07;;;22.20;99.90;;;;;;5011136;28;20421;-69
2021/06/24 12:17:25;;;;;;;5.13;4.67;;;22.50;99.90;;;;;;5011024;28;20839;-69
2021/06/24 12:20:03;;;;;;;7.80;5.50;;;22.80;99.90;;;;;;5011099;28;20424;-69
2021/06/24 12:22:48;;;;;;;6.40;5.80;;;23.20;99.90;;;;;;5010862;28;20426;-68
2021/06/24 12:25:19;;;;;;;6.33;5.37;;;23.50;99.90;;;;;;5011123;28;20512;-68
2021/06/24 12:27:50;;;;;;;5.20;4.70;;;23.00;99.90;;;;;;5011017;28;20435;-70
2021/06/24 12:30:21;;;;;;;4.43;4.03;;;23.10;99.90;;;;;;5010993;28;20888;-71
2021/06/24 12:32:52;;;;;;;4.17;3.77;;;23.20;99.90;;;;;;5014924;28;20417;-71
2021/06/24 12:35:22;;;;;;;4.10;3.80;;;23.00;99.90;;;;;;5019351;28;20837;-70
2021/06/24 12:37:52;;;;;;;6.60;4.40;;;22.90;99.90;;;;;;5019967;28;20472;-70
2021/06/24 12:40:22;;;;;;;6.17;4.83;;;23.20;99.90;;;;;;5018836;28;20427;-70
2021/06/24 12:42:54;;;;;;;5.43;4.80;;;23.50;99.90;;;;;;5019905;28;20399;-69
2021/06/24 12:45:43;;;;;;;6.83;5.20;;;23.80;99.90;;;;;;5017882;28;20783;-70
2021/06/24 12:48:26;;;;;;;4.93;4.53;;;24.20;99.90;;;;;;5019376;28;20425;-69
2021/06/24 12:50:55;;;;;;;5.33;4.27;;;23.70;99.90;;;;;;5018709;28;20419;-70
2021/06/24 12:53:37;;;;;;;5.60;4.60;;;23.40;99.90;;;;;;5019217;28;20425;-69
2021/06/24 12:56:18;;;;;;;4.77;4.33;;;22.90;99.90;;;;;;5020932;28;20448;-71
2021/06/24 12:58:49;;;;;;;6.80;4.27;;;22.20;99.90;;;;;;5022115;28;20795;-69
2021/06/24 13:01:19;;;;;;;9.50;5.53;;;21.80;99.90;;;;;;5018679;28;20817;-69
2021/06/24 13:03:49;;;;;;;6.00;5.30;;;21.70;99.90;;;;;;5014634;28;20396;-69
2021/06/24 13:06:19;;;;;;;7.57;4.53;;;21.80;99.90;;;;;;5015472;28;20832;-70
2021/06/24 13:09:04;;;;;;;8.53;5.90;;;21.90;99.90;;;;;;5017370;28;20496;-71
2021/06/24 13:11:35;;;;;;;4.70;4.30;;;22.10;99.90;;;;;;5017135;28;20511;-69
2021/06/24 13:14:08;;;;;;;5.17;4.73;;;21.70;99.90;;;;;;5016404;28;20483;-70
2021/06/24 13:16:39;;;;;;;7.83;5.87;;;21.70;99.90;;;;;;5014777;28;20835;-71
2021/06/24 13:19:10;;;;;;;6.10;5.53;;;21.30;99.90;;;;;;5014891;28;20451;-70
2021/06/24 13:21:52;;;;;;;6.03;5.20;;;21.30;99.90;;;;;;5014678;28;20447;-70
2021/06/24 13:24:21;;;;;;;5.33;4.50;;;21.30;99.90;;;;;;5015766;28;20395;-73